Time;durP1;ratioP1;P1;durP2;ratioP2;P2;SDS_P1;SDS_P2;PMS_P1;PMS_P2;Temp;Humidity;BMP_temperature;BMP_pressure;BME280_temperature;BME280_humidity;BME280_pressure;Samples;Min_cycle;Max_cycle;Signal;HPM_P1;HPM_P2
2023/08/14 00:01:23;;;;;;;12.07;5.00;;;;;;;25.71;64.35;98746.09;7000503;28;20332;-85
2023/08/14 00:04:45;;;;;;;7.30;4.80;;;;;;;25.69;64.73;98757.44;7000050;28;20205;-85
2023/08/14 00:08:06;;;;;;;4.30;3.80;;;;;;;25.85;63.67;98733.94;6999465;28;20688;-85
2023/08/14 00:11:29;;;;;;;6.10;4.40;;;;;;;25.79;63.82;98723.28;6999528;28;20715;-85
2023/08/14 00:14:51;;;;;;;5.57;4.30;;;;;;;25.79;63.52;98729.59;6999733;28;20291;-85
2023/08/14 00:18:12;;;;;;;7.93;4.50;;;;;;;25.56;64.14;98732.53;6999064;28;20693;-85
2023/08/14 00:21:34;;;;;;;6.80;4.90;;;;;;;25.27;65.19;98731.94;6986375;28;20240;-84
2023/08/14 00:24:55;;;;;;;10.07;5.10;;;;;;;25.21;66.17;98750.50;6988967;28;20287;-85
2023/08/14 00:28:18;;;;;;;7.10;4.93;;;;;;;25.29;65.86;98746.25;6998607;28;20266;-83
2023/08/14 00:31:40;;;;;;;7.27;5.03;;;;;;;25.28;66.65;98747.38;6998462;28;20368;-83
2023/08/14 00:35:02;;;;;;;6.63;4.90;;;;;;;25.26;66.16;98722.84;6999365;28;20298;-83
2023/08/14 00:38:24;;;;;;;7.97;4.90;;;;;;;25.45;65.72;98745.72;6998785;28;20247;-82
2023/08/14 00:41:45;;;;;;;7.43;5.23;;;;;;;25.11;65.88;98691.88;6979470;28;20232;-83
2023/08/14 00:45:10;;;;;;;6.33;4.73;;;;;;;24.90;65.56;98655.53;6999093;28;20353;-83
2023/08/14 00:48:31;;;;;;;7.13;4.87;;;;;;;25.54;65.23;98749.41;6998894;28;20265;-84
2023/08/14 00:51:53;;;;;;;6.60;5.20;;;;;;;25.24;64.86;98705.78;6986256;28;20273;-85
2023/08/14 00:55:18;;;;;;;5.13;4.63;;;;;;;25.67;64.64;98739.53;6990662;28;20205;-84
2023/08/14 00:58:40;;;;;;;5.90;4.20;;;;;;;25.83;64.10;98736.16;6979871;28;20220;-84
2023/08/14 01:02:03;;;;;;;5.60;5.00;;;;;;;25.60;64.34;98725.31;6987249;28;20227;-84
2023/08/14 01:05:25;;;;;;;6.53;4.83;;;;;;;25.55;65.12;98737.22;6979167;28;20212;-85
2023/08/14 01:08:47;;;;;;;6.37;5.00;;;;;;;25.58;64.78;98741.34;6973083;28;20287;-84
2023/08/14 01:12:11;;;;;;;6.80;4.70;;;;;;;25.13;64.46;98662.88;6994415;28;20224;-83
2023/08/14 01:15:35;;;;;;;6.00;4.03;;;;;;;25.68;63.73;98736.47;6980683;28;20733;-83
2023/08/14 01:18:59;;;;;;;8.00;4.37;;;;;;;25.59;63.67;98756.81;6987798;28;20281;-84
2023/08/14 01:22:30;;;;;;;6.67;4.70;;;;;;;25.45;64.53;98751.25;6991482;28;20223;-83
2023/08/14 01:25:53;;;;;;;4.80;4.37;;;;;;;25.66;63.79;98740.66;6972172;28;20637;-83
2023/08/14 01:29:14;;;;;;;4.80;4.27;;;;;;;25.57;64.93;98737.78;6991166;28;20202;-83
2023/08/14 01:32:36;;;;;;;4.90;4.47;;;;;;;25.52;65.01;98726.81;6998302;28;20321;-83
2023/08/14 01:36:03;;;;;;;7.60;4.00;;;;;;;25.67;64.41;98725.72;6998352;28;20265;-83
2023/08/14 01:39:28;;;;;;;6.00;3.97;;;;;;;25.83;63.53;98724.31;6986897;28;20348;-83
2023/08/14 01:42:54;;;;;;;10.10;4.57;;;;;;;25.67;63.48;98732.03;6994717;28;20700;-83
2023/08/14 01:46:16;;;;;;;5.33;4.83;;;;;;;25.02;65.80;98748.88;7000214;28;20313;-84
2023/08/14 01:49:38;;;;;;;5.07;4.63;;;;;;;25.51;65.23;98785.09;7014830;28;20268;-83
2023/08/14 01:53:00;;;;;;;7.60;4.83;;;;;;;25.23;65.31;98805.38;6993354;28;20382;-85
2023/08/14 01:56:21;;;;;;;10.37;5.97;;;;;;;24.46;68.49;98784.66;6996867;28;20670;-84
2023/08/14 01:59:46;;;;;;;7.60;6.90;;;;;;;24.64;70.62;98789.44;6996838;28;20251;-84
2023/08/14 02:03:07;;;;;;;8.07;6.73;;;;;;;25.29;69.37;98784.91;6996753;28;20311;-84
2023/08/14 02:06:31;;;;;;;9.57;6.50;;;;;;;25.74;67.49;98762.88;6996905;28;20341;-84
2023/08/14 02:09:53;;;;;;;8.63;6.93;;;;;;;25.42;68.55;98732.50;6998017;28;20573;-84
2023/08/14 02:13:14;;;;;;;5.90;5.20;;;;;;;25.07;68.00;98713.75;6997819;28;20221;-84
2023/08/14 02:16:37;;;;;;;4.77;4.20;;;;;;;25.23;67.59;98698.59;6995885;28;20263;-83
2023/08/14 02:19:59;;;;;;;4.73;3.77;;;;;;;25.01;65.54;98673.56;6997300;28;20217;-84
2023/08/14 02:23:20;;;;;;;3.80;3.27;;;;;;;25.30;64.49;98712.84;6996659;28;20270;-84
2023/08/14 02:26:42;;;;;;;2.93;2.63;;;;;;;25.37;61.32;98702.22;6995877;28;20943;-84
2023/08/14 02:30:04;;;;;;;6.20;2.57;;;;;;;24.87;62.16;98711.31;6996984;28;20686;-85
2023/08/14 02:33:27;;;;;;;2.40;2.20;;;;;;;24.74;61.40;98642.31;6995917;28;20236;-85
2023/08/14 02:36:49;;;;;;;6.67;2.30;;;;;;;25.29;61.05;98672.56;6995420;28;20208;-84
2023/08/14 02:40:11;;;;;;;3.97;2.10;;;;;;;25.76;60.04;98724.69;6996040;28;20262;-84
2023/08/14 02:43:33;;;;;;;2.53;2.33;;;;;;;25.95;59.55;98731.00;6996146;28;20240;-84
2023/08/14 02:46:54;;;;;;;5.10;2.70;;;;;;;25.64;60.63;98712.50;7000073;28;20303;-83
2023/08/14 02:50:17;;;;;;;4.07;3.40;;;;;;;25.58;62.58;98731.13;7001359;28;20288;-84
2023/08/14 02:53:39;;;;;;;4.20;3.80;;;;;;;25.48;64.05;98700.13;7000541;28;20312;-84
2023/08/14 02:57:00;;;;;;;4.07;3.70;;;;;;;25.28;64.48;98683.91;6999726;28;20285;-84
2023/08/14 03:00:23;;;;;;;4.00;3.70;;;;;;;25.28;64.53;98681.97;7000632;28;20317;-85
2023/08/14 03:03:44;;;;;;;3.73;3.00;;;;;;;25.20;64.19;98682.63;6999010;28;20218;-85
2023/08/14 03:07:07;;;;;;;3.40;3.07;;;;;;;25.27;64.25;98677.59;6974538;28;20248;-85
2023/08/14 03:10:29;;;;;;;4.63;3.50;;;;;;;25.44;64.18;98682.50;6994073;28;20397;-85
2023/08/14 03:13:50;;;;;;;4.60;3.50;;;;;;;25.64;63.40;98687.66;7000971;28;20231;-84
2023/08/14 03:17:12;;;;;;;4.23;3.83;;;;;;;25.32;64.34;98688.50;7000346;28;20237;-84
2023/08/14 03:20:33;;;;;;;4.33;3.93;;;;;;;24.70;66.30;98701.91;7000399;28;20672;-84
2023/08/14 03:23:56;;;;;;;6.03;4.43;;;;;;;24.78;66.81;98713.09;7001025;28;20314;-84
2023/08/14 03:27:18;;;;;;;6.57;3.90;;;;;;;24.92;65.90;98714.00;7000616;28;20240;-83
2023/08/14 03:30:42;;;;;;;5.47;4.20;;;;;;;25.13;65.33;98698.75;6996860;28;20274;-84
2023/08/14 03:34:04;;;;;;;5.80;4.40;;;;;;;24.73;66.89;98704.09;6999599;28;20277;-84
2023/08/14 03:37:26;;;;;;;5.10;4.30;;;;;;;24.89;67.56;98728.38;6998699;28;20288;-84
2023/08/14 03:40:50;;;;;;;5.17;4.70;;;;;;;24.98;65.85;98707.28;6976683;28;20255;-84
2023/08/14 03:44:11;;;;;;;4.90;4.40;;;;;;;25.03;66.45;98676.03;6971778;28;20897;-84
2023/08/14 03:47:33;;;;;;;4.80;3.83;;;;;;;25.41;64.89;98694.97;6988039;28;20638;-84
2023/08/14 03:50:54;;;;;;;5.40;4.23;;;;;;;25.01;65.19;98662.53;6999375;28;20348;-84
2023/08/14 03:54:16;;;;;;;4.87;4.30;;;;;;;25.54;64.00;98685.91;7000388;28;20307;-85
2023/08/14 03:57:38;;;;;;;6.67;4.63;;;;;;;25.47;64.44;98685.47;6998385;28;20210;-85
2023/08/14 04:01:00;;;;;;;5.70;5.10;;;;;;;25.35;64.83;98679.63;6999228;28;20267;-85
2023/08/14 04:04:21;;;;;;;5.57;5.07;;;;;;;25.03;65.62;98687.06;6999671;28;20212;-84
2023/08/14 04:07:43;;;;;;;9.70;6.10;;;;;;;23.94;69.56;98682.81;6999229;28;20231;-85
2023/08/14 04:11:04;;;;;;;10.27;5.90;;;;;;;23.66;71.47;98674.59;6999526;28;20682;-85
2023/08/14 04:14:27;;;;;;;7.73;5.60;;;;;;;24.46;68.73;98701.13;6999097;28;20294;-85
2023/08/14 04:17:49;;;;;;;5.93;5.33;;;;;;;24.96;67.41;98705.94;6998452;28;20260;-85
2023/08/14 04:21:10;;;;;;;6.23;5.13;;;;;;;25.07;66.05;98699.94;6999151;28;20355;-85
2023/08/14 04:24:32;;;;;;;6.67;5.20;;;;;;;24.97;65.43;98707.59;6999091;28;20242;-85
2023/08/14 04:27:53;;;;;;;6.43;5.33;;;;;;;24.70;66.33;98694.47;6998293;28;20252;-85
2023/08/14 04:31:16;;;;;;;7.43;5.53;;;;;;;24.20;68.02;98684.13;6998942;28;20256;-84
2023/08/14 04:34:37;;;;;;;6.00;5.40;;;;;;;24.50;67.32;98692.00;6999113;28;20308;-84
2023/08/14 04:37:59;;;;;;;6.77;5.80;;;;;;;24.41;67.32;98684.66;6999171;28;20348;-84
2023/08/14 04:41:20;;;;;;;6.80;5.10;;;;;;;24.54;67.08;98695.78;6995112;28;20319;-84
2023/08/14 04:44:42;;;;;;;8.33;5.50;;;;;;;24.20;67.60;98661.28;7000741;28;20299;-84
2023/08/14 04:48:05;;;;;;;7.53;5.67;;;;;;;23.75;69.27;98705.88;7003206;28;20272;-85
2023/08/14 04:51:28;;;;;;;7.17;5.93;;;;;;;24.55;67.40;98699.38;6998608;28;20347;-84
2023/08/14 04:54:50;;;;;;;7.30;6.37;;;;;;;24.01;68.76;98694.28;6999229;28;20256;-84
2023/08/14 04:58:12;;;;;;;7.17;6.13;;;;;;;24.56;67.28;98684.47;7000709;28;20659;-83
2023/08/14 05:01:33;;;;;;;7.60;5.80;;;;;;;24.74;66.09;98664.38;7003681;28;20696;-85
2023/08/14 05:04:56;;;;;;;5.13;4.53;;;;;;;24.85;65.47;98690.66;7008885;28;20209;-84
2023/08/14 05:08:18;;;;;;;8.73;5.60;;;;;;;24.74;65.69;98706.56;7003849;28;20212;-85
2023/08/14 05:11:40;;;;;;;5.13;4.63;;;;;;;24.82;65.13;98711.41;6996336;28;20256;-84
2023/08/14 05:15:02;;;;;;;8.87;5.23;;;;;;;24.62;65.68;98700.69;7000541;28;20340;-84
2023/08/14 05:18:23;;;;;;;5.40;5.00;;;;;;;24.87;65.87;98722.34;6999798;28;20363;-85
2023/08/14 05:21:46;;;;;;;6.63;5.00;;;;;;;24.65;65.72;98710.28;7000040;28;20307;-85
2023/08/14 05:25:09;;;;;;;6.90;6.10;;;;;;;24.10;67.35;98708.25;6999647;28;20256;-84
2023/08/14 05:28:31;;;;;;;5.57;5.10;;;;;;;24.47;66.81;98703.59;6998831;28;20204;-86
2023/08/14 05:31:52;;;;;;;8.77;5.10;;;;;;;25.11;65.81;98695.47;6995074;28;20234;-84
2023/08/14 05:35:16;;;;;;;4.07;3.77;;;;;;;25.72;64.07;98686.97;6999591;28;20233;-83
2023/08/14 05:38:39;;;;;;;4.87;3.73;;;;;;;26.28;62.44;98676.41;6998568;28;20219;-83
2023/08/14 05:42:00;;;;;;;3.93;3.63;;;;;;;26.55;61.15;98687.47;7000337;28;20267;-83
2023/08/14 05:45:22;;;;;;;5.63;3.47;;;;;;;26.56;60.89;98686.34;7003469;28;20340;-83
2023/08/14 05:48:43;;;;;;;5.47;3.77;;;;;;;26.53;61.27;98679.44;6987148;28;20690;-83
2023/08/14 05:52:05;;;;;;;6.70;3.60;;;;;;;26.17;62.90;98652.88;7004609;28;20252;-83
2023/08/14 05:55:28;;;;;;;3.73;3.33;;;;;;;26.00;63.73;98652.69;7005421;28;20353;-84
2023/08/14 05:58:49;;;;;;;3.90;3.57;;;;;;;26.42;61.66;98653.13;7004029;28;20239;-83
2023/08/14 06:02:11;;;;;;;4.47;4.07;;;;;;;26.54;61.07;98653.44;6994359;28;20275;-84
2023/08/14 06:05:32;;;;;;;5.63;3.77;;;;;;;26.79;61.23;98627.94;6993047;28;20307;-84
2023/08/14 06:08:54;;;;;;;5.40;3.80;;;;;;;27.11;59.94;98657.31;7001816;28;20288;-84
2023/08/14 06:12:17;;;;;;;3.80;3.40;;;;;;;27.00;59.97;98667.00;7005233;28;20769;-84
2023/08/14 06:15:38;;;;;;;4.20;3.80;;;;;;;26.82;61.12;98677.13;7007812;28;20276;-85
2023/08/14 06:19:00;;;;;;;6.63;3.77;;;;;;;27.03;59.99;98669.97;7008942;28;20280;-84
2023/08/14 06:22:21;;;;;;;3.90;3.43;;;;;;;26.83;59.69;98670.47;7000792;28;20316;-83
2023/08/14 06:25:43;;;;;;;4.63;3.37;;;;;;;26.75;61.11;98651.84;6988303;28;20243;-84
2023/08/14 06:29:06;;;;;;;4.00;3.47;;;;;;;26.39;61.74;98655.72;6982827;28;20289;-84
2023/08/14 06:32:29;;;;;;;4.30;3.90;;;;;;;25.63;63.23;98575.56;7001824;28;20229;-84
2023/08/14 06:35:50;;;;;;;4.57;3.20;;;;;;;25.87;63.95;98665.38;6988009;28;20232;-84
2023/08/14 06:39:12;;;;;;;4.07;3.67;;;;;;;26.46;61.98;98659.69;6982986;28;20206;-84
2023/08/14 06:42:33;;;;;;;3.60;3.30;;;;;;;26.44;61.57;98603.91;6977177;28;20276;-84
2023/08/14 06:45:56;;;;;;;3.80;3.50;;;;;;;26.96;61.03;98650.22;7000029;28;20198;-83
2023/08/14 06:49:18;;;;;;;3.80;3.30;;;;;;;27.10;60.42;98659.28;7005495;28;20205;-84
2023/08/14 06:52:39;;;;;;;3.83;3.53;;;;;;;27.00;60.79;98656.75;7005046;28;20256;-85
2023/08/14 06:56:02;;;;;;;4.33;3.20;;;;;;;26.95;60.36;98622.88;6989106;28;20226;-83
2023/08/14 06:59:23;;;;;;;3.90;3.50;;;;;;;27.30;60.70;98642.16;6996420;28;20256;-85
2023/08/14 07:02:47;;;;;;;5.40;3.40;;;;;;;27.80;60.01;98649.13;7001107;28;20308;-84
2023/08/14 07:06:09;;;;;;;4.93;3.70;;;;;;;27.61;59.77;98656.03;7001182;28;20300;-83
2023/08/14 07:09:30;;;;;;;3.70;3.40;;;;;;;28.07;58.46;98650.84;6986845;28;20337;-85
2023/08/14 07:12:52;;;;;;;3.83;3.17;;;;;;;28.52;57.09;98657.81;7001220;28;20218;-84
2023/08/14 07:16:13;;;;;;;6.20;3.30;;;;;;;28.22;57.09;98655.94;6999909;28;20251;-84
2023/08/14 07:19:36;;;;;;;6.37;3.73;;;;;;;28.07;58.07;98656.41;7001786;28;20343;-83
2023/08/14 07:22:58;;;;;;;6.27;3.90;;;;;;;27.19;60.34;98637.22;7003169;28;20643;-83
2023/08/14 07:26:19;;;;;;;4.33;3.47;;;;;;;27.73;60.35;98650.69;7002125;28;20202;-82
2023/08/14 07:29:41;;;;;;;3.73;3.43;;;;;;;27.95;58.25;98643.13;7001941;28;20220;-84
2023/08/14 07:33:02;;;;;;;3.50;3.20;;;;;;;28.87;57.67;98651.94;6999507;28;20315;-84
2023/08/14 07:36:25;;;;;;;3.60;3.30;;;;;;;28.79;56.40;98611.13;6999222;28;20684;-84
2023/08/14 07:39:47;;;;;;;4.00;3.13;;;;;;;29.92;53.10;98642.75;6996150;28;20313;-85
2023/08/14 07:43:08;;;;;;;6.27;3.10;;;;;;;30.35;53.16;98640.56;6997662;28;20280;-85
2023/08/14 07:46:30;;;;;;;3.63;3.33;;;;;;;30.43;51.30;98641.66;6994398;28;20237;-84
2023/08/14 07:49:51;;;;;;;3.43;2.80;;;;;;;29.80;53.13;98634.31;7002021;28;20209;-86
2023/08/14 07:53:14;;;;;;;3.40;3.00;;;;;;;29.79;54.77;98648.53;7003700;28;20227;-85
2023/08/14 07:56:36;;;;;;;3.50;3.20;;;;;;;29.89;53.50;98637.03;6986395;28;20237;-85
2023/08/14 07:59:58;;;;;;;3.40;3.10;;;;;;;30.82;52.31;98635.63;6996411;28;20298;-85
2023/08/14 08:03:22;;;;;;;3.53;2.70;;;;;;;31.66;52.43;98655.47;6998025;28;20288;-85
2023/08/14 08:06:44;;;;;;;5.33;2.67;;;;;;;30.78;49.76;98652.22;6998704;28;20267;-86
2023/08/14 08:10:07;;;;;;;2.63;2.43;;;;;;;31.02;51.39;98621.69;6999895;28;20612;-85
2023/08/14 08:13:29;;;;;;;2.90;2.70;;;;;;;32.08;48.13;98646.56;6976457;28;20263;-85
2023/08/14 08:16:50;;;;;;;3.40;2.73;;;;;;;32.17;49.23;98644.47;6983359;28;20208;-85
2023/08/14 08:20:12;;;;;;;2.60;2.40;;;;;;;32.80;46.20;98654.09;6997661;28;20224;-85
2023/08/14 08:23:34;;;;;;;4.00;3.03;;;;;;;32.37;47.66;98653.94;6997612;28;20270;-85
2023/08/14 08:26:56;;;;;;;3.10;2.70;;;;;;;31.77;48.10;98632.38;6998683;28;20298;-84
2023/08/14 08:30:18;;;;;;;3.53;2.77;;;;;;;32.29;50.06;98663.22;6986670;28;20296;-83
2023/08/14 08:33:40;;;;;;;3.27;2.80;;;;;;;32.05;48.00;98540.44;6997000;28;20598;-83
2023/08/14 08:37:01;;;;;;;4.23;3.00;;;;;;;31.77;48.50;98656.69;6973746;28;20202;-83
2023/08/14 08:40:23;;;;;;;3.80;2.80;;;;;;;31.67;49.23;98665.47;6997576;28;20321;-83
2023/08/14 08:43:46;;;;;;;3.87;2.90;;;;;;;30.11;54.09;98657.06;7000681;28;20716;-83
2023/08/14 08:47:09;;;;;;;2.67;2.30;;;;;;;31.41;52.57;98664.91;6996368;28;20298;-85
2023/08/14 08:50:30;;;;;;;3.20;2.60;;;;;;;32.94;46.99;98660.91;6997284;28;20300;-82
2023/08/14 08:53:52;;;;;;;2.93;2.73;;;;;;;32.15;46.61;98646.00;6997969;28;20707;-84
2023/08/14 08:57:13;;;;;;;2.93;2.70;;;;;;;31.62;48.40;98655.34;6998264;28;20243;-84
2023/08/14 09:00:36;;;;;;;3.03;2.60;;;;;;;33.46;43.79;98653.25;6994155;28;20212;-84
2023/08/14 09:03:58;;;;;;;3.17;2.60;;;;;;;33.45;44.48;98650.81;6979638;28;20889;-85
2023/08/14 09:07:19;;;;;;;6.87;2.80;;;;;;;33.76;45.39;98639.66;6997441;28;20284;-84
2023/08/14 09:10:41;;;;;;;2.43;2.20;;;;;;;34.36;40.19;98656.03;6989994;28;20255;-84
2023/08/14 09:14:03;;;;;;;4.20;2.70;;;;;;;34.91;40.74;98645.31;6994954;28;20697;-86
2023/08/14 09:17:26;;;;;;;4.03;2.70;;;;;;;32.44;43.23;98604.69;6996665;28;20296;-86
2023/08/14 09:20:48;;;;;;;3.40;3.00;;;;;;;33.12;46.54;98650.25;6997887;28;20290;-84
2023/08/14 09:24:10;;;;;;;4.40;3.17;;;;;;;33.17;47.52;98645.22;6991820;28;20313;-87
2023/08/14 09:27:32;;;;;;;6.63;4.80;;;;;;;32.56;48.80;98589.91;6992964;28;20207;-85
2023/08/14 09:30:53;;;;;;;6.07;4.47;;;;;;;31.91;50.51;98646.78;6992447;28;20237;-85
2023/08/14 09:34:19;;;;;;;6.27;4.17;;;;;;;32.84;48.68;98643.84;6996905;28;20239;-84
2023/08/14 09:37:41;;;;;;;4.23;3.50;;;;;;;33.56;46.69;98635.13;6998951;28;20290;-83
2023/08/14 09:41:03;;;;;;;4.77;3.10;;;;;;;32.05;50.49;98638.09;7000331;28;20215;-84
2023/08/14 09:44:24;;;;;;;4.83;3.93;;;;;;;33.14;47.03;98642.34;7000422;28;20693;-83
2023/08/14 09:47:47;;;;;;;4.90;3.27;;;;;;;32.90;47.13;98636.84;6998831;28;20285;-83
2023/08/14 09:51:12;;;;;;;3.73;3.10;;;;;;;32.22;49.42;98635.06;6999485;28;20269;-84
2023/08/14 09:54:35;;;;;;;3.00;2.70;;;;;;;33.16;46.50;98635.22;6986338;28;20209;-84
2023/08/14 09:57:57;;;;;;;3.87;2.90;;;;;;;33.85;45.38;98638.31;6999242;28;20333;-84
2023/08/14 10:01:20;;;;;;;3.03;2.73;;;;;;;34.24;42.85;98617.72;7001810;28;20599;-86
2023/08/14 10:04:42;;;;;;;3.97;3.07;;;;;;;35.51;40.75;98619.31;7002765;28;20257;-84
2023/08/14 10:08:08;;;;;;;3.90;3.30;;;;;;;35.11;42.69;98604.06;6996685;28;20562;-85
2023/08/14 10:11:30;;;;;;;3.60;3.30;;;;;;;33.80;45.56;98616.25;6994012;28;20233;-83
2023/08/14 10:15:05;;;;;;;4.37;3.37;;;;;;;34.83;43.73;98618.31;6999969;28;20568;-84
2023/08/14 10:18:28;;;;;;;3.30;3.00;;;;;;;35.05;42.27;98614.78;6996898;28;20194;-83
2023/08/14 10:21:52;;;;;;;3.83;3.07;;;;;;;34.48;42.41;98597.91;6997599;28;20286;-85
2023/08/14 10:25:15;;;;;;;6.53;2.80;;;;;;;35.40;40.91;98601.47;7001436;28;20255;-85
2023/08/14 10:28:37;;;;;;;3.20;2.90;;;;;;;34.92;41.84;98601.28;6996168;28;20291;-85
2023/08/14 10:31:58;;;;;;;2.80;2.60;;;;;;;33.67;43.79;98602.69;6992140;28;20645;-85
2023/08/14 10:35:21;;;;;;;4.17;2.80;;;;;;;34.93;42.27;98600.94;6996323;28;20279;-84
2023/08/14 10:38:46;;;;;;;4.33;2.90;;;;;;;35.54;40.76;98596.13;7000687;28;20202;-85
2023/08/14 10:42:13;;;;;;;3.20;2.70;;;;;;;34.24;41.87;98477.75;7001786;28;20225;-85
2023/08/14 10:45:46;;;;;;;3.20;2.90;;;;;;;35.32;41.67;98596.91;6998406;28;20216;-84
2023/08/14 10:49:08;;;;;;;3.33;3.03;;;;;;;35.29;41.70;98599.66;6998711;28;21305;-85
2023/08/14 10:52:30;;;;;;;3.80;2.80;;;;;;;35.81;37.95;98581.00;6979040;28;20237;-85
2023/08/14 10:55:52;;;;;;;4.70;2.90;;;;;;;36.28;38.71;98587.00;7000422;28;20293;-86
2023/08/14 10:59:23;;;;;;;5.03;2.90;;;;;;;35.71;40.92;98592.84;7003346;28;20664;-85
2023/08/14 11:02:50;;;;;;;3.60;3.30;;;;;;;35.97;40.28;98592.09;6999171;28;20233;-84
2023/08/14 11:06:22;;;;;;;3.20;2.80;;;;;;;37.78;37.72;98584.47;6998377;28;20202;-86
2023/08/14 11:09:50;;;;;;;4.10;2.90;;;;;;;37.91;36.99;98586.56;6994356;28;20198;-86
2023/08/14 11:13:12;;;;;;;3.67;2.97;;;;;;;38.59;33.20;98571.78;6998730;28;20631;-85
2023/08/14 11:16:36;;;;;;;4.33;2.80;;;;;;;39.12;32.61;98586.94;7000243;28;20228;-85
2023/08/14 11:19:57;;;;;;;3.33;3.03;;;;;;;38.63;32.85;98575.44;7001532;28;20696;-85
2023/08/14 11:23:19;;;;;;;3.00;2.63;;;;;;;38.50;32.54;98574.16;7000913;28;20379;-86
2023/08/14 11:26:40;;;;;;;3.73;2.80;;;;;;;38.56;31.42;98513.41;6983634;28;20206;-85
2023/08/14 11:30:02;;;;;;;3.50;2.73;;;;;;;38.01;31.90;98573.81;7002376;28;20236;-84
2023/08/14 11:33:25;;;;;;;3.90;2.97;;;;;;;36.28;35.31;98563.72;7000942;28;20240;-85
2023/08/14 11:36:54;;;;;;;3.37;3.00;;;;;;;37.32;34.19;98566.28;6998188;28;20256;-86
2023/08/14 11:40:16;;;;;;;4.53;2.77;;;;;;;38.02;32.96;98548.06;6998883;28;20731;-86
2023/08/14 11:43:38;;;;;;;3.33;2.70;;;;;;;38.15;32.27;98563.47;6989254;28;20225;-85
2023/08/14 11:46:59;;;;;;;4.57;2.90;;;;;;;38.20;31.98;98565.88;6997907;28;20208;-86
2023/08/14 11:50:22;;;;;;;3.20;3.00;;;;;;;38.94;31.59;98571.97;6998225;28;20237;-86
2023/08/14 11:53:44;;;;;;;4.30;2.60;;;;;;;39.20;30.63;98551.94;6988411;28;20342;-86
2023/08/14 11:57:08;;;;;;;3.70;2.70;;;;;;;38.60;31.51;98551.66;6970820;28;20744;-86
2023/08/14 12:00:29;;;;;;;4.83;2.60;;;;;;;39.72;31.41;98539.97;6970869;28;20201;-85
2023/08/14 12:03:52;;;;;;;3.63;2.70;;;;;;;39.42;32.92;98551.59;6994516;28;20237;-85
2023/08/14 12:07:18;;;;;;;3.53;2.73;;;;;;;39.88;32.27;98543.16;6997399;28;20209;-86
2023/08/14 12:10:40;;;;;;;3.30;3.00;;;;;;;38.58;33.43;98556.91;6993355;28;20248;-86
2023/08/14 12:14:06;;;;;;;3.37;3.07;;;;;;;38.68;33.61;98561.78;6994965;28;20226;-86
2023/08/14 12:17:27;;;;;;;3.17;2.60;;;;;;;37.83;33.61;98562.38;6990861;28;20794;-86
2023/08/14 12:20:52;;;;;;;3.27;2.80;;;;;;;38.06;33.89;98579.88;6996792;28;20201;-85
2023/08/14 12:24:18;;;;;;;5.23;3.57;;;;;;;37.25;34.35;98519.19;6996914;28;20836;-86
2023/08/14 12:27:39;;;;;;;5.97;3.27;;;;;;;37.47;34.62;98597.00;6996088;28;20237;-85
2023/08/14 12:31:01;;;;;;;3.10;2.70;;;;;;;37.52;35.49;98596.66;6996806;28;20307;-85
2023/08/14 12:34:22;;;;;;;4.03;3.03;;;;;;;37.28;35.72;98590.75;6995043;28;20234;-86
2023/08/14 12:37:44;;;;;;;2.77;2.57;;;;;;;37.03;35.43;98587.63;6995176;28;20293;-86
2023/08/14 12:41:07;;;;;;;5.20;3.17;;;;;;;36.57;36.05;98591.00;6995857;28;20292;-85
2023/08/14 12:44:28;;;;;;;4.27;3.00;;;;;;;36.68;36.54;98617.28;7001374;28;20257;-85
2023/08/14 12:47:50;;;;;;;4.90;2.90;;;;;;;36.80;35.88;98629.13;7005084;28;20202;-84
2023/08/14 12:51:12;;;;;;;5.87;3.10;;;;;;;36.23;35.75;98592.94;7002250;28;20237;-86
2023/08/14 12:54:33;;;;;;;3.67;2.90;;;;;;;36.57;34.58;98619.13;6996771;28;20241;-88
2023/08/14 12:57:56;;;;;;;3.27;2.97;;;;;;;35.75;35.23;98534.81;6997146;28;20206;-86
2023/08/14 13:01:18;;;;;;;3.50;3.13;;;;;;;35.61;36.51;98596.25;6997289;28;20242;-87
2023/08/14 13:04:39;;;;;;;4.27;2.93;;;;;;;34.96;37.38;98543.31;6980428;28;20232;-87
2023/08/14 13:08:02;;;;;;;4.23;2.87;;;;;;;32.48;40.90;98526.66;6997486;28;20208;-86
2023/08/14 13:11:24;;;;;;;3.40;3.00;;;;;;;33.83;40.06;98648.28;6996989;28;20569;-86
2023/08/14 13:14:47;;;;;;;7.03;3.47;;;;;;;34.02;40.28;98649.16;6998097;28;20247;-87
2023/08/14 13:18:09;;;;;;;4.37;3.03;;;;;;;32.69;43.60;98617.44;7026659;28;20203;-87
2023/08/14 13:21:30;;;;;;;4.50;3.50;;;;;;;33.54;43.16;98615.13;7018488;28;20234;-85
2023/08/14 13:24:52;;;;;;;3.63;3.30;;;;;;;33.23;43.86;98615.84;6998808;28;20315;-87
2023/08/14 13:28:13;;;;;;;4.80;3.73;;;;;;;33.50;45.11;98556.28;6995783;28;20246;-86
2023/08/14 13:31:36;;;;;;;7.20;3.33;;;;;;;33.81;43.82;98622.63;6995153;28;20235;-86
2023/08/14 13:34:58;;;;;;;5.60;3.10;;;;;;;34.71;42.24;98638.03;6995252;28;20204;-86
2023/08/14 13:38:19;;;;;;;5.77;3.37;;;;;;;34.83;42.32;98618.31;6997297;28;20200;-84
2023/08/14 13:41:41;;;;;;;3.33;3.03;;;;;;;35.13;41.64;98607.34;7000390;28;20306;-84
2023/08/14 13:45:03;;;;;;;3.70;3.40;;;;;;;35.26;39.83;98541.53;6997271;28;20324;-84
2023/08/14 13:48:26;;;;;;;4.07;3.27;;;;;;;35.84;39.38;98582.25;6996962;28;20298;-85
2023/08/14 13:51:48;;;;;;;3.87;3.30;;;;;;;36.03;38.75;98580.16;6984822;28;20225;-85
2023/08/14 13:55:09;;;;;;;4.07;3.33;;;;;;;36.47;38.44;98572.81;6982120;28;20344;-85
2023/08/14 13:58:31;;;;;;;4.93;3.67;;;;;;;36.11;39.06;98579.09;6974761;28;20206;-85
2023/08/14 14:01:52;;;;;;;3.73;3.40;;;;;;;36.14;38.42;98571.91;6988673;28;20279;-85
2023/08/14 14:05:16;;;;;;;4.97;3.30;;;;;;;36.25;38.31;98567.28;6997272;28;20237;-84
2023/08/14 14:08:37;;;;;;;3.40;3.10;;;;;;;35.41;38.95;98544.22;6996307;28;20206;-85
2023/08/14 14:11:59;;;;;;;4.90;3.50;;;;;;;36.22;37.64;98539.97;6995396;28;20271;-86
2023/08/14 14:15:21;;;;;;;4.47;3.10;;;;;;;36.57;37.23;98563.75;6993932;28;20202;-85
2023/08/14 14:18:43;;;;;;;4.37;3.10;;;;;;;36.08;38.80;98565.00;6989738;28;20681;-84
2023/08/14 14:22:06;;;;;;;3.60;3.13;;;;;;;35.30;39.11;98483.50;6996655;28;20268;-85
2023/08/14 14:25:27;;;;;;;5.83;3.33;;;;;;;35.80;39.36;98551.34;6996588;28;20442;-83
2023/08/14 14:28:49;;;;;;;3.40;3.10;;;;;;;35.39;40.12;98549.38;6997143;28;20237;-85
2023/08/14 14:32:10;;;;;;;3.87;3.50;;;;;;;34.98;41.41;98561.41;6995793;28;20789;-86
2023/08/14 14:35:32;;;;;;;4.00;3.53;;;;;;;34.89;41.73;98557.19;6994949;28;20292;-85
2023/08/14 14:38:55;;;;;;;4.53;3.10;;;;;;;34.66;40.46;98464.66;6996729;28;20236;-84
2023/08/14 14:42:17;;;;;;;3.43;3.13;;;;;;;35.06;40.09;98559.53;6999810;28;20225;-84
2023/08/14 14:45:38;;;;;;;5.07;3.23;;;;;;;35.47;39.41;98578.34;6984244;28;20208;-84
2023/08/14 14:49:00;;;;;;;5.57;3.10;;;;;;;35.59;38.38;98581.78;6972902;28;20667;-85
2023/08/14 14:52:22;;;;;;;4.53;3.20;;;;;;;35.35;38.66;98581.34;6993149;28;20265;-85
2023/08/14 14:55:45;;;;;;;4.10;3.33;;;;;;;35.41;39.11;98575.06;6980514;28;20605;-85
2023/08/14 14:59:07;;;;;;;3.40;3.10;;;;;;;35.29;38.97;98568.81;6985779;28;20352;-85
2023/08/14 15:02:28;;;;;;;5.40;3.60;;;;;;;35.34;38.79;98546.06;6978561;28;20245;-85
2023/08/14 15:05:50;;;;;;;3.23;2.90;;;;;;;35.69;38.14;98524.25;6976706;28;20301;-85
2023/08/14 15:09:11;;;;;;;5.23;3.10;;;;;;;34.91;38.39;98459.56;6993418;28;20253;-85
2023/08/14 15:12:34;;;;;;;4.33;2.80;;;;;;;35.69;37.14;98524.25;6998782;28;20276;-86
2023/08/14 15:15:56;;;;;;;3.63;3.00;;;;;;;35.53;37.47;98520.75;7000275;28;20263;-87
2023/08/14 15:19:17;;;;;;;5.87;3.20;;;;;;;36.01;36.35;98514.38;6999430;28;20267;-85
2023/08/14 15:22:39;;;;;;;5.47;3.10;;;;;;;36.07;37.05;98521.28;6999516;28;20276;-88
2023/08/14 15:26:00;;;;;;;5.63;3.17;;;;;;;35.78;37.59;98514.41;6988203;28;20241;-85
2023/08/14 15:29:23;;;;;;;5.77;3.17;;;;;;;35.87;37.13;98494.47;7001612;28;20252;-87
2023/08/14 15:32:45;;;;;;;4.13;3.07;;;;;;;35.76;36.99;98513.16;6985918;28;20226;-87
2023/08/14 15:36:06;;;;;;;3.60;3.00;;;;;;;35.90;37.71;98493.75;6971249;28;20285;-86
2023/08/14 15:39:30;;;;;;;5.87;3.20;;;;;;;35.78;38.10;98491.16;6971610;28;20203;-87
2023/08/14 15:42:51;;;;;;;3.97;3.23;;;;;;;36.18;37.60;98491.34;6978691;28;20657;-87
2023/08/14 15:46:14;;;;;;;4.13;2.93;;;;;;;36.19;36.92;98502.22;6998123;28;20249;-87
2023/08/14 15:49:36;;;;;;;3.43;2.90;;;;;;;35.88;37.50;98484.88;6998942;28;20610;-87
2023/08/14 15:52:57;;;;;;;4.27;3.23;;;;;;;36.18;37.91;98492.19;6997713;28;20283;-87